Decoded TAF's for Namibia

 
Print Page
 
 

Grootfontein - Namibia, FYGF

ADDS - TAFS form results

Aviation Digital Data Service (ADDS)

Output produced by TAFs form (0554 UTC 25 February 2018)
found at http://aviationweather.gov/adds/tafs/
 
Forecast for: FYGF (GROOTFONTEIN , NA)
Text: TAF FYGF 250200Z 2503/2512 21010KT 9999 SCT045
Forecast period: 0300 to 0900 UTC 25 February 2018
Forecast type: FROM: standard forecast or significant change
Winds: from the SSW (210 degrees) at 12 MPH (10 knots; 5.2 m/s)
Visibility: 6 or more miles (10+ km)
Clouds: scattered clouds at 4500 feet AGL
Weather: no significant weather forecast for this period
Text: BECMG 2509/2511 BKN045
Forecast period: 0900 to 1200 UTC 25 February 2018
Forecast type: BECOMING: Conditions expected to become as follows by 1100 UTC 25 February 2018
Winds: from the SSW (210 degrees) at 12 MPH (10 knots; 5.2 m/s)
Visibility: 6 or more miles (10+ km)
Ceiling: 4500 feet AGL
Clouds: broken clouds at 4500 feet AGL
Weather: no significant weather forecast for this period

Array
Henties Bay - Namibia, FYGN

ADDS - TAFS form results

Aviation Digital Data Service (ADDS)

Output produced by TAFs form (0554 UTC 25 February 2018)
found at http://aviationweather.gov/adds/tafs/
 
You entered "FYGN"

Sorry, either there are no data available for your request or you did not enter any valid ICAO airport abbreviations.

See stations.txt for a list of known METAR and TAF locations. Then go back to the ADDS METARs or TAFs page and try again
 
Please try again and, if problems persist, then send mail to ncep.awc.adds@noaa.gov
Array
Keetmanshoop - Namibia, FYKT

ADDS - TAFS form results

Aviation Digital Data Service (ADDS)

Output produced by TAFs form (0554 UTC 25 February 2018)
found at http://aviationweather.gov/adds/tafs/
 
Forecast for: FYKT (KEETMANSHOOP , NA)
Text: TAF FYKT 250400Z 2506/2606 00000KT CAVOK
Forecast period: 0600 to 0900 UTC 25 February 2018
Forecast type: FROM: standard forecast or significant change
Winds: calm
Visibility: 6 or more miles (10+ km)
Clouds: not forecast
Weather: NSW  (no significant weather)
Text: BECMG 2509/2511 03004KT
Forecast period: 0900 to 1600 UTC 25 February 2018
Forecast type: BECOMING: Conditions expected to become as follows by 1100 UTC 25 February 2018
Winds: from the NNE (30 degrees) at 5 MPH (4 knots; 2.1 m/s)
Visibility: 6 or more miles (10+ km)
Weather: NSW  (no significant weather)
Text: BECMG 2516/2518 15009KT
Forecast period: 1600 UTC 25 February 2018 to 0000 UTC 26 February 2018
Forecast type: BECOMING: Conditions expected to become as follows by 1800 UTC 25 February 2018
Winds: from the SSE (150 degrees) at 10 MPH (9 knots; 4.7 m/s)
Visibility: 6 or more miles (10+ km)
Weather: NSW  (no significant weather)
Text: BECMG 2600/2602 09008KT
Forecast period: 0000 to 0600 UTC 26 February 2018
Forecast type: BECOMING: Conditions expected to become as follows by 0200 UTC 26 February 2018
Winds: from the E (90 degrees) at 9 MPH (8 knots; 4.2 m/s)
Visibility: 6 or more miles (10+ km)
Weather: NSW  (no significant weather)

Array
Katima Mulilo - Namibia, FYKM

ADDS - TAFS form results

Aviation Digital Data Service (ADDS)

Output produced by TAFs form (0554 UTC 25 February 2018)
found at http://aviationweather.gov/adds/tafs/
 
You entered "FYKM"

Sorry, either there are no data available for your request or you did not enter any valid ICAO airport abbreviations.

See stations.txt for a list of known METAR and TAF locations. Then go back to the ADDS METARs or TAFs page and try again
 
Please try again and, if problems persist, then send mail to ncep.awc.adds@noaa.gov
Array
Luderitz - Namibia, FYLZ

ADDS - TAFS form results

Aviation Digital Data Service (ADDS)

Output produced by TAFs form (0554 UTC 25 February 2018)
found at http://aviationweather.gov/adds/tafs/
 
Forecast for: FYLZ (LUDERITZ/DIAZ PO, NA)
Text: TAF FYLZ 250200Z 2503/2512 16016KT CAVOK
Forecast period: 0300 to 1200 UTC 25 February 2018
Forecast type: FROM: standard forecast or significant change
Winds: from the SSE (160 degrees) at 18 MPH (16 knots; 8.3 m/s)
Visibility: 6 or more miles (10+ km)
Clouds: not forecast
Weather: NSW  (no significant weather)

Array
Ondangwa - Namibia, FYOA

ADDS - TAFS form results

Aviation Digital Data Service (ADDS)

Output produced by TAFs form (0554 UTC 25 February 2018)
found at http://aviationweather.gov/adds/tafs/
 
Forecast for: FYOA (ONDANGWA , NA)
Text: TAF FYOA 250200Z 2503/2512 21005KT CAVOK
Forecast period: 0300 to 1200 UTC 25 February 2018
Forecast type: FROM: standard forecast or significant change
Winds: from the SSW (210 degrees) at 6 MPH (5 knots; 2.6 m/s)
Visibility: 6 or more miles (10+ km)
Clouds: not forecast
Weather: NSW  (no significant weather)

Array
Walvis Bay - Namibia, FYWB

ADDS - TAFS form results

Aviation Digital Data Service (ADDS)

Output produced by TAFs form (0554 UTC 25 February 2018)
found at http://aviationweather.gov/adds/tafs/
 
Forecast for: FYWB (WALVIS BAY , NA)
Text: TAF FYWB 250400Z 2506/2606 03006KT 9999 OVC012
Forecast period: 0600 to 0900 UTC 25 February 2018
Forecast type: FROM: standard forecast or significant change
Winds: from the NNE (30 degrees) at 7 MPH (6 knots; 3.1 m/s)
Visibility: 6 or more miles (10+ km)
Ceiling: 1200 feet AGL
Clouds: overcast cloud deck at 1200 feet AGL
Weather: no significant weather forecast for this period
Text: BECMG 2509/2511 27005KT 9999 NSW BKN015
Forecast period: 0900 to 1200 UTC 25 February 2018
Forecast type: BECOMING: Conditions expected to become as follows by 1100 UTC 25 February 2018
Winds: from the W (270 degrees) at 6 MPH (5 knots; 2.6 m/s)
Visibility: 6 or more miles (10+ km)
Ceiling: 1500 feet AGL
Clouds: broken clouds at 1500 feet AGL
Weather: NSW  (no significant weather)
Text: BECMG 2512/2514 CAVOK
Forecast period: 1200 to 1900 UTC 25 February 2018
Forecast type: BECOMING: Conditions expected to become as follows by 1400 UTC 25 February 2018
Winds: from the W (270 degrees) at 6 MPH (5 knots; 2.6 m/s)
Visibility: 6 or more miles (10+ km)
Weather: NSW  (no significant weather)
Text: BECMG 2519/2521 9999 BKN013
Forecast period: 1900 UTC 25 February 2018 to 0600 UTC 26 February 2018
Forecast type: BECOMING: Conditions expected to become as follows by 2100 UTC 25 February 2018
Winds: from the W (270 degrees) at 6 MPH (5 knots; 2.6 m/s)
Visibility: 6 or more miles (10+ km)
Ceiling: 1300 feet AGL
Clouds: broken clouds at 1300 feet AGL
Weather: NSW  (no significant weather)
Text: TEMPO 2522/2603 06003KT 0800 FG OVC009
Forecast period: 2200 UTC 25 February 2018 to 0300 UTC 26 February 2018
Forecast type: TEMPORARY: The following changes expected for less than half the time period
Winds: from the ENE (60 degrees) at 3 MPH (3 knots; 1.6 m/s)
Visibility: 0.50 miles (0.80 km)
Ceiling: 900 feet AGL
Clouds: overcast cloud deck at 900 feet AGL
Weather: FG  (fog)

Array
Eros Airport (Windhoek) - Namibia, FYWE

ADDS - TAFS form results

Aviation Digital Data Service (ADDS)

Output produced by TAFs form (0554 UTC 25 February 2018)
found at http://aviationweather.gov/adds/tafs/
 
Forecast for: FYWE (EROS AIRPORT , NA)
Text: TAF FYWE 250200Z 2503/2512 15004KT CAVOK
Forecast period: 0300 to 1200 UTC 25 February 2018
Forecast type: FROM: standard forecast or significant change
Winds: from the SSE (150 degrees) at 5 MPH (4 knots; 2.1 m/s)
Visibility: 6 or more miles (10+ km)
Clouds: not forecast
Weather: NSW  (no significant weather)

Array
J.G Strydom Airport - Namibia, FYWH

ADDS - TAFS form results

Aviation Digital Data Service (ADDS)

Output produced by TAFs form (0554 UTC 25 February 2018)
found at http://aviationweather.gov/adds/tafs/
 
Forecast for: FYWH (J. G. STRIJDOM , NA)
Text: TAF FYWH 250400Z 2506/2606 17007KT CAVOK
Forecast period: 0600 to 1300 UTC 25 February 2018
Forecast type: FROM: standard forecast or significant change
Winds: from the S (170 degrees) at 8 MPH (7 knots; 3.6 m/s)
Visibility: 6 or more miles (10+ km)
Clouds: not forecast
Weather: NSW  (no significant weather)
Text: BECMG 2513/2515 25003KT
Forecast period: 1300 UTC 25 February 2018 to 0000 UTC 26 February 2018
Forecast type: BECOMING: Conditions expected to become as follows by 1500 UTC 25 February 2018
Winds: from the WSW (250 degrees) at 3 MPH (3 knots; 1.6 m/s)
Visibility: 6 or more miles (10+ km)
Weather: NSW  (no significant weather)
Text: BECMG 2600/2602 06004KT
Forecast period: 0000 to 0600 UTC 26 February 2018
Forecast type: BECOMING: Conditions expected to become as follows by 0200 UTC 26 February 2018
Winds: from the ENE (60 degrees) at 5 MPH (4 knots; 2.1 m/s)
Visibility: 6 or more miles (10+ km)
Weather: NSW  (no significant weather)

Array
Windhoek - Namibia, FYWW

ADDS - TAFS form results

Aviation Digital Data Service (ADDS)

Output produced by TAFs form (0554 UTC 25 February 2018)
found at http://aviationweather.gov/adds/tafs/
 
You entered "FYWW"

Sorry, either there are no data available for your request or you did not enter any valid ICAO airport abbreviations.

See stations.txt for a list of known METAR and TAF locations. Then go back to the ADDS METARs or TAFs page and try again
 
Please try again and, if problems persist, then send mail to ncep.awc.adds@noaa.gov
Array